Independence — WDD6659 — position and weather

sailwx.info

Track history (hours):
 
Tides and Currents Weather Stations Pressure Air Temp Water Temp Dewpoint Dewpoint Depression Visibility Wind Speed Wind Dir Waves Ship Positions

Independence

Owner: Sortwell, Inc. DBA AmNav Maritime Services, Oakland, CA. More information available from US FCC via Universal Licensing System and Coast Guard Vessel Documentation Center.

Last reported at 2016-Aug-28 04:06 UTC. Time now 2016-Aug-28 06:57 UTC.
Position N 33°46' W 118°16'.

Length 24 m; draft 4.9 m.

Type: Tug. MMSI: 367175860.

Date/timePositionNaut miles runAvg speedWind from/ knotsBaromVisibWave heightAir tempDewpointWater temp
2016-Aug-28 04:06N 33°46' W 118°16'0 0.0
2016-Aug-28 03:22N 33°46' W 118°16'0 0.0
2016-Aug-28 02:31N 33°46' W 118°16'0 0.0
2016-Aug-28 01:05N 33°46' W 118°16'0 0.4
2016-Aug-28 00:33N 33°46' W 118°17'0 0.0
2016-Aug-27 23:33N 33°46' W 118°17'3 0.5
2016-Aug-27 17:25N 33°45' W 118°13'3 0.2
2016-Aug-27 00:33N 33°46' W 118°16'0 0.2
2016-Aug-26 23:33N 33°46' W 118°16'2 0.1
2016-Aug-26 08:13N 33°44' W 118°17'0 0.0
2016-Aug-26 07:18N 33°44' W 118°17'0 0.0
2016-Aug-26 03:08N 33°44' W 118°17'1 1.6
2016-Aug-26 02:33N 33°44' W 118°15'1 1.4
2016-Aug-26 01:33N 33°45' W 118°16'3 2.5
2016-Aug-26 00:28N 33°45' W 118°13'1 1.1
2016-Aug-25 23:33N 33°46' W 118°14'3 2.4
2016-Aug-25 22:26N 33°45' W 118°16'1 1.2
2016-Aug-25 21:33N 33°46' W 118°17'0 0.0
2016-Aug-25 20:30N 33°46' W 118°17'2 0.7
2016-Aug-25 17:14N 33°44' W 118°16'0 0.1
2016-Aug-25 13:33N 33°44' W 118°17'4 3.5
2016-Aug-25 12:32N 33°46' W 118°13'4 1.7
2016-Aug-25 10:22N 33°44' W 118°17'0 0.0
2016-Aug-25 09:14N 33°44' W 118°17'0 0.0
2016-Aug-25 04:31N 33°44' W 118°17'0 0.0
2016-Aug-25 03:33N 33°44' W 118°17'0 0.0
2016-Aug-25 02:33N 33°44' W 118°17'0 0.0
2016-Aug-25 01:33N 33°44' W 118°17'0 0.0
2016-Aug-25 00:33N 33°44' W 118°17'2 2.2
2016-Aug-24 23:33N 33°46' W 118°17'1 0.7
2016-Aug-24 22:33N 33°45' W 118°16'3 3.0
2016-Aug-24 21:33N 33°43' W 118°15'2 0.4
2016-Aug-24 17:20N 33°44' W 118°17'0 0.1
2016-Aug-24 14:33N 33°43' W 118°16'2 1.6
2016-Aug-24 13:33N 33°43' W 118°15'3 2.5
2016-Aug-24 12:23N 33°44' W 118°12'1 0.6
2016-Aug-24 11:26N 33°44' W 118°11'1 0.8
2016-Aug-24 10:33N 33°44' W 118°12'0 0.0
2016-Aug-24 09:33N 33°44' W 118°12'1 0.9
2016-Aug-24 08:32N 33°45' W 118°13'1 1.0
2016-Aug-24 07:33N 33°44' W 118°12'1 0.7
2016-Aug-24 06:33N 33°43' W 118°13'3 1.6
2016-Aug-24 04:33N 33°44' W 118°17'0 0.0
2016-Aug-24 03:34N 33°44' W 118°17'0 0.0
2016-Aug-24 02:33N 33°44' W 118°17'0 0.0
2016-Aug-24 01:33N 33°44' W 118°17'0 0.0
2016-Aug-24 00:33N 33°44' W 118°17'0 0.0
2016-Aug-23 23:32N 33°44' W 118°17'0 0.0
2016-Aug-23 22:33N 33°44' W 118°17'0 0.0
2016-Aug-23 21:34N 33°44' W 118°17'0 0.0
2016-Aug-23 20:30N 33°44' W 118°17'0 0.0
2016-Aug-23 16:32N 33°44' W 118°17'3 3.2
2016-Aug-23 15:30N 33°45' W 118°13'0 0.0
2016-Aug-23 14:33N 33°45' W 118°13'3 2.6
2016-Aug-23 13:31N 33°44' W 118°11'1 0.7
2016-Aug-23 12:33N 33°44' W 118°12'3 2.8
2016-Aug-23 11:33N 33°44' W 118°15'1 1.4
2016-Aug-23 10:33N 33°43' W 118°15'1 1.2
2016-Aug-23 09:33N 33°43' W 118°16'1 0.5
2016-Aug-23 08:33N 33°44' W 118°17'0 0.0
2016-Aug-23 07:33N 33°44' W 118°17'0 0.0
2016-Aug-23 05:33N 33°44' W 118°17'1 0.6
2016-Aug-23 04:33N 33°43' W 118°16'3 3.4
2016-Aug-23 03:33N 33°45' W 118°12'3 2.9
2016-Aug-23 02:34N 33°43' W 118°15'1 1.5
2016-Aug-23 01:33N 33°44' W 118°17'0 0.0
2016-Aug-23 00:33N 33°44' W 118°17'0 0.1
2016-Aug-22 23:34N 33°44' W 118°16'1 1.4
2016-Aug-22 22:33N 33°45' W 118°16'3 2.9
2016-Aug-22 21:34N 33°43' W 118°15'2 1.9
2016-Aug-22 20:33N 33°44' W 118°17'0 0.0
2016-Aug-22 19:33N 33°44' W 118°17'0 0.0
2016-Aug-22 17:27N 33°44' W 118°17'0 0.0
2016-Aug-22 16:32N 33°44' W 118°17'0 0.0
2016-Aug-22 15:32N 33°44' W 118°17'0 0.0
2016-Aug-22 14:33N 33°44' W 118°17'1 0.8
2016-Aug-22 13:34N 33°43' W 118°16'1 1.3
2016-Aug-22 12:33N 33°42' W 118°15'2 2.0
2016-Aug-22 11:33N 33°44' W 118°17'0 0.0
2016-Aug-22 10:29N 33°44' W 118°17'0 0.0
2016-Aug-22 09:16N 33°44' W 118°17'0 0.0
2016-Aug-22 08:33N 33°44' W 118°17'0 0.0
2016-Aug-22 07:33N 33°44' W 118°17'0 0.0
2016-Aug-22 06:33N 33°44' W 118°17'0 0.0
2016-Aug-22 05:33N 33°44' W 118°17'0 0.0
2016-Aug-22 04:33N 33°44' W 118°17'0 0.0
2016-Aug-22 03:33N 33°44' W 118°17'0 0.0
2016-Aug-22 02:33N 33°44' W 118°17'0 0.0
2016-Aug-22 01:33N 33°44' W 118°17'2 2.2
2016-Aug-22 00:33N 33°46' W 118°15'3 3.1
2016-Aug-21 23:33N 33°43' W 118°15'2 1.9
2016-Aug-21 22:34N 33°44' W 118°17'0 0.0
2016-Aug-21 21:33N 33°44' W 118°17'0 0.0
2016-Aug-21 20:33N 33°44' W 118°17'0 0.0
2016-Aug-21 19:33N 33°44' W 118°17'0 0.0
2016-Aug-21 18:33N 33°44' W 118°17'0 0.0
2016-Aug-21 17:32N 33°44' W 118°17'0 0.0
2016-Aug-21 16:31N 33°44' W 118°17'0 0.1
2016-Aug-21 15:33N 33°44' W 118°16'0 0.1
2016-Aug-21 14:31N 33°44' W 118°17'1 0.4
2016-Aug-21 13:07N 33°43' W 118°16'3 6.0
2016-Aug-21 12:33N 33°45' W 118°12'2 2.1
2016-Aug-21 11:32N 33°43' W 118°14'2 2.2
2016-Aug-21 10:33N 33°44' W 118°17'0 0.0
2016-Aug-21 09:33N 33°44' W 118°17'0 0.0
2016-Aug-21 08:33N 33°44' W 118°17'0 0.0
2016-Aug-21 07:33N 33°44' W 118°17'0 0.0
2016-Aug-21 06:34N 33°44' W 118°17'0 0.0
2016-Aug-21 05:33N 33°44' W 118°17'0 0.0
2016-Aug-21 04:33N 33°44' W 118°17'0 0.0
2016-Aug-21 03:33N 33°44' W 118°17'0 0.0
2016-Aug-21 02:28N 33°44' W 118°17'0 0.0
2016-Aug-21 01:32N 33°44' W 118°17'2 2.3
2016-Aug-21 00:33N 33°46' W 118°16'0 0.3
2016-Aug-20 23:34N 33°46' W 118°17'2 1.9
2016-Aug-20 22:25N 33°44' W 118°17'0 0.0
2016-Aug-20 20:28N 33°44' W 118°17'4 4.0
2016-Aug-20 19:33N 33°46' W 118°13'4 2.4
2016-Aug-20 18:06N 33°43' W 118°11'0 0.8
2016-Aug-20 17:33N 33°43' W 118°12'4 3.9
2016-Aug-20 16:33N 33°43' W 118°16'4 3.9
2016-Aug-20 15:33N 33°45' W 118°12'1 1.0
2016-Aug-20 14:32N 33°45' W 118°13'2 1.4
2016-Aug-20 13:28N 33°44' W 118°12'4 0.6
2016-Aug-20 07:15N 33°44' W 118°17'0 0.0
2016-Aug-20 04:10N 33°44' W 118°17'0 0.0
2016-Aug-20 03:32N 33°44' W 118°17'0 0.0
2016-Aug-20 01:31N 33°44' W 118°17'0 0.0
2016-Aug-20 00:33N 33°44' W 118°17'0 0.0
2016-Aug-19 23:33N 33°44' W 118°17'0 0.0
2016-Aug-19 22:33N 33°44' W 118°17'0 0.0
2016-Aug-19 21:33N 33°44' W 118°17'0 0.0
2016-Aug-19 20:33N 33°44' W 118°17'0 0.0
2016-Aug-19 19:33N 33°44' W 118°17'0 0.0
2016-Aug-19 18:33N 33°44' W 118°17'0 0.1
2016-Aug-19 16:13N 33°44' W 118°16'3 4.7
2016-Aug-19 15:33N 33°45' W 118°13'1 1.2
2016-Aug-19 14:27N 33°46' W 118°14'1 1.6
2016-Aug-19 13:32N 33°45' W 118°13'1 0.8
2016-Aug-19 12:33N 33°45' W 118°14'1 0.7
2016-Aug-19 11:34N 33°45' W 118°13'3 2.9
2016-Aug-19 10:32N 33°44' W 118°17'0 0.0
2016-Aug-19 09:25N 33°44' W 118°17'0 0.0
2016-Aug-19 08:28N 33°44' W 118°17'0 0.0
2016-Aug-19 07:32N 33°44' W 118°17'0 0.0
2016-Aug-19 06:33N 33°44' W 118°17'0 0.0
2016-Aug-19 03:31N 33°44' W 118°17'0 0.0
2016-Aug-19 02:33N 33°44' W 118°17'0 0.0
2016-Aug-19 01:31N 33°44' W 118°17'0 0.0
2016-Aug-19 00:33N 33°44' W 118°17'0 0.0
2016-Aug-18 23:25N 33°44' W 118°17'0 0.0
2016-Aug-18 22:33N 33°44' W 118°17'0 0.0
2016-Aug-18 21:31N 33°44' W 118°17'0 0.0
2016-Aug-18 20:31N 33°44' W 118°17'0 0.0
2016-Aug-18 19:33N 33°44' W 118°17'0 0.0
2016-Aug-18 16:20N 33°44' W 118°17'3 3.5
2016-Aug-18 15:31N 33°44' W 118°13'1 1.2
2016-Aug-18 14:33N 33°45' W 118°12'3 3.3
2016-Aug-18 13:30N 33°43' W 118°16'2 1.8
2016-Aug-18 12:32N 33°43' W 118°14'1 0.8
2016-Aug-18 11:33N 33°43' W 118°15'3 3.0
2016-Aug-18 10:33N 33°46' W 118°16'2 1.8
2016-Aug-18 09:33N 33°44' W 118°17'0 0.0
2016-Aug-18 08:33N 33°44' W 118°17'0 0.0
2016-Aug-18 07:22N 33°44' W 118°17'0 0.0
2016-Aug-18 06:33N 33°44' W 118°17'0 0.0
2016-Aug-18 05:32N 33°44' W 118°17'0 0.0
2016-Aug-18 04:30N 33°44' W 118°17'  
Track history (hours):
 
Tides and Currents Weather Stations Pressure Air Temp Water Temp Dewpoint Dewpoint Depression Visibility Wind Speed Wind Dir Waves Ship Positions

Independence

Owner: Sortwell, Inc. DBA AmNav Maritime Services, Oakland, CA. More information available from US FCC via Universal Licensing System and Coast Guard Vessel Documentation Center.

Last reported at 2016-Aug-28 04:06 UTC. Time now 2016-Aug-28 06:57 UTC.
Position N 33°46' W 118°16'.

Length 24 m; draft 4.9 m.

Type: Tug. MMSI: 367175860.

Date/timePositionNaut miles runAvg speedWind from/ knotsBaromVisibWave heightAir tempDewpointWater temp
2016-Aug-28 04:06N 33°46' W 118°16'0 0.0
2016-Aug-28 03:22N 33°46' W 118°16'0 0.0
2016-Aug-28 02:31N 33°46' W 118°16'0 0.0
2016-Aug-28 01:05N 33°46' W 118°16'0 0.4
2016-Aug-28 00:33N 33°46' W 118°17'0 0.0
2016-Aug-27 23:33N 33°46' W 118°17'3 0.5
2016-Aug-27 17:25N 33°45' W 118°13'3 0.2
2016-Aug-27 00:33N 33°46' W 118°16'0 0.2
2016-Aug-26 23:33N 33°46' W 118°16'2 0.1
2016-Aug-26 08:13N 33°44' W 118°17'0 0.0
2016-Aug-26 07:18N 33°44' W 118°17'0 0.0
2016-Aug-26 03:08N 33°44' W 118°17'1 1.6
2016-Aug-26 02:33N 33°44' W 118°15'1 1.4
2016-Aug-26 01:33N 33°45' W 118°16'3 2.5
2016-Aug-26 00:28N 33°45' W 118°13'1 1.1
2016-Aug-25 23:33N 33°46' W 118°14'3 2.4
2016-Aug-25 22:26N 33°45' W 118°16'1 1.2
2016-Aug-25 21:33N 33°46' W 118°17'0 0.0
2016-Aug-25 20:30N 33°46' W 118°17'2 0.7
2016-Aug-25 17:14N 33°44' W 118°16'0 0.1
2016-Aug-25 13:33N 33°44' W 118°17'4 3.5
2016-Aug-25 12:32N 33°46' W 118°13'4 1.7
2016-Aug-25 10:22N 33°44' W 118°17'0 0.0
2016-Aug-25 09:14N 33°44' W 118°17'0 0.0
2016-Aug-25 04:31N 33°44' W 118°17'0 0.0
2016-Aug-25 03:33N 33°44' W 118°17'0 0.0
2016-Aug-25 02:33N 33°44' W 118°17'0 0.0
2016-Aug-25 01:33N 33°44' W 118°17'0 0.0
2016-Aug-25 00:33N 33°44' W 118°17'2 2.2
2016-Aug-24 23:33N 33°46' W 118°17'1 0.7
2016-Aug-24 22:33N 33°45' W 118°16'3 3.0
2016-Aug-24 21:33N 33°43' W 118°15'2 0.4
2016-Aug-24 17:20N 33°44' W 118°17'0 0.1
2016-Aug-24 14:33N 33°43' W 118°16'2 1.6
2016-Aug-24 13:33N 33°43' W 118°15'3 2.5
2016-Aug-24 12:23N 33°44' W 118°12'1 0.6
2016-Aug-24 11:26N 33°44' W 118°11'1 0.8
2016-Aug-24 10:33N 33°44' W 118°12'0 0.0
2016-Aug-24 09:33N 33°44' W 118°12'1 0.9
2016-Aug-24 08:32N 33°45' W 118°13'1 1.0
2016-Aug-24 07:33N 33°44' W 118°12'1 0.7
2016-Aug-24 06:33N 33°43' W 118°13'3 1.6
2016-Aug-24 04:33N 33°44' W 118°17'0 0.0
2016-Aug-24 03:34N 33°44' W 118°17'0 0.0
2016-Aug-24 02:33N 33°44' W 118°17'0 0.0
2016-Aug-24 01:33N 33°44' W 118°17'0 0.0
2016-Aug-24 00:33N 33°44' W 118°17'0 0.0
2016-Aug-23 23:32N 33°44' W 118°17'0 0.0
2016-Aug-23 22:33N 33°44' W 118°17'0 0.0
2016-Aug-23 21:34N 33°44' W 118°17'0 0.0
2016-Aug-23 20:30N 33°44' W 118°17'0 0.0
2016-Aug-23 16:32N 33°44' W 118°17'3 3.2
2016-Aug-23 15:30N 33°45' W 118°13'0 0.0
2016-Aug-23 14:33N 33°45' W 118°13'3 2.6
2016-Aug-23 13:31N 33°44' W 118°11'1 0.7
2016-Aug-23 12:33N 33°44' W 118°12'3 2.8
2016-Aug-23 11:33N 33°44' W 118°15'1 1.4
2016-Aug-23 10:33N 33°43' W 118°15'1 1.2
2016-Aug-23 09:33N 33°43' W 118°16'1 0.5
2016-Aug-23 08:33N 33°44' W 118°17'0 0.0
2016-Aug-23 07:33N 33°44' W 118°17'0 0.0
2016-Aug-23 05:33N 33°44' W 118°17'1 0.6
2016-Aug-23 04:33N 33°43' W 118°16'3 3.4
2016-Aug-23 03:33N 33°45' W 118°12'3 2.9
2016-Aug-23 02:34N 33°43' W 118°15'1 1.5
2016-Aug-23 01:33N 33°44' W 118°17'0 0.0
2016-Aug-23 00:33N 33°44' W 118°17'0 0.1
2016-Aug-22 23:34N 33°44' W 118°16'1 1.4
2016-Aug-22 22:33N 33°45' W 118°16'3 2.9
2016-Aug-22 21:34N 33°43' W 118°15'2 1.9
2016-Aug-22 20:33N 33°44' W 118°17'0 0.0
2016-Aug-22 19:33N 33°44' W 118°17'0 0.0
2016-Aug-22 17:27N 33°44' W 118°17'0 0.0
2016-Aug-22 16:32N 33°44' W 118°17'0 0.0
2016-Aug-22 15:32N 33°44' W 118°17'0 0.0
2016-Aug-22 14:33N 33°44' W 118°17'1 0.8
2016-Aug-22 13:34N 33°43' W 118°16'1 1.3
2016-Aug-22 12:33N 33°42' W 118°15'2 2.0
2016-Aug-22 11:33N 33°44' W 118°17'0 0.0
2016-Aug-22 10:29N 33°44' W 118°17'0 0.0
2016-Aug-22 09:16N 33°44' W 118°17'0 0.0
2016-Aug-22 08:33N 33°44' W 118°17'0 0.0
2016-Aug-22 07:33N 33°44' W 118°17'0 0.0
2016-Aug-22 06:33N 33°44' W 118°17'0 0.0
2016-Aug-22 05:33N 33°44' W 118°17'0 0.0
2016-Aug-22 04:33N 33°44' W 118°17'0 0.0
2016-Aug-22 03:33N 33°44' W 118°17'0 0.0
2016-Aug-22 02:33N 33°44' W 118°17'0 0.0
2016-Aug-22 01:33N 33°44' W 118°17'2 2.2
2016-Aug-22 00:33N 33°46' W 118°15'3 3.1
2016-Aug-21 23:33N 33°43' W 118°15'2 1.9
2016-Aug-21 22:34N 33°44' W 118°17'0 0.0
2016-Aug-21 21:33N 33°44' W 118°17'0 0.0
2016-Aug-21 20:33N 33°44' W 118°17'0 0.0
2016-Aug-21 19:33N 33°44' W 118°17'0 0.0
2016-Aug-21 18:33N 33°44' W 118°17'0 0.0
2016-Aug-21 17:32N 33°44' W 118°17'0 0.0
2016-Aug-21 16:31N 33°44' W 118°17'0 0.1
2016-Aug-21 15:33N 33°44' W 118°16'0 0.1
2016-Aug-21 14:31N 33°44' W 118°17'1 0.4
2016-Aug-21 13:07N 33°43' W 118°16'3 6.0
2016-Aug-21 12:33N 33°45' W 118°12'2 2.1
2016-Aug-21 11:32N 33°43' W 118°14'2 2.2
2016-Aug-21 10:33N 33°44' W 118°17'0 0.0
2016-Aug-21 09:33N 33°44' W 118°17'0 0.0
2016-Aug-21 08:33N 33°44' W 118°17'0 0.0
2016-Aug-21 07:33N 33°44' W 118°17'0 0.0
2016-Aug-21 06:34N 33°44' W 118°17'0 0.0
2016-Aug-21 05:33N 33°44' W 118°17'0 0.0
2016-Aug-21 04:33N 33°44' W 118°17'0 0.0
2016-Aug-21 03:33N 33°44' W 118°17'0 0.0
2016-Aug-21 02:28N 33°44' W 118°17'0 0.0
2016-Aug-21 01:32N 33°44' W 118°17'2 2.3
2016-Aug-21 00:33N 33°46' W 118°16'0 0.3
2016-Aug-20 23:34N 33°46' W 118°17'2 1.9
2016-Aug-20 22:25N 33°44' W 118°17'0 0.0
2016-Aug-20 20:28N 33°44' W 118°17'4 4.0
2016-Aug-20 19:33N 33°46' W 118°13'4 2.4
2016-Aug-20 18:06N 33°43' W 118°11'0 0.8
2016-Aug-20 17:33N 33°43' W 118°12'4 3.9
2016-Aug-20 16:33N 33°43' W 118°16'4 3.9
2016-Aug-20 15:33N 33°45' W 118°12'1 1.0
2016-Aug-20 14:32N 33°45' W 118°13'2 1.4
2016-Aug-20 13:28N 33°44' W 118°12'4 0.6
2016-Aug-20 07:15N 33°44' W 118°17'0 0.0
2016-Aug-20 04:10N 33°44' W 118°17'0 0.0
2016-Aug-20 03:32N 33°44' W 118°17'0 0.0
2016-Aug-20 01:31N 33°44' W 118°17'0 0.0
2016-Aug-20 00:33N 33°44' W 118°17'0 0.0
2016-Aug-19 23:33N 33°44' W 118°17'0 0.0
2016-Aug-19 22:33N 33°44' W 118°17'0 0.0
2016-Aug-19 21:33N 33°44' W 118°17'0 0.0
2016-Aug-19 20:33N 33°44' W 118°17'0 0.0
2016-Aug-19 19:33N 33°44' W 118°17'0 0.0
2016-Aug-19 18:33N 33°44' W 118°17'0 0.1
2016-Aug-19 16:13N 33°44' W 118°16'3 4.7
2016-Aug-19 15:33N 33°45' W 118°13'1 1.2
2016-Aug-19 14:27N 33°46' W 118°14'1 1.6
2016-Aug-19 13:32N 33°45' W 118°13'1 0.8
2016-Aug-19 12:33N 33°45' W 118°14'1 0.7
2016-Aug-19 11:34N 33°45' W 118°13'3 2.9
2016-Aug-19 10:32N 33°44' W 118°17'0 0.0
2016-Aug-19 09:25N 33°44' W 118°17'0 0.0
2016-Aug-19 08:28N 33°44' W 118°17'0 0.0
2016-Aug-19 07:32N 33°44' W 118°17'0 0.0
2016-Aug-19 06:33N 33°44' W 118°17'0 0.0
2016-Aug-19 03:31N 33°44' W 118°17'0 0.0
2016-Aug-19 02:33N 33°44' W 118°17'0 0.0
2016-Aug-19 01:31N 33°44' W 118°17'0 0.0
2016-Aug-19 00:33N 33°44' W 118°17'0 0.0
2016-Aug-18 23:25N 33°44' W 118°17'0 0.0
2016-Aug-18 22:33N 33°44' W 118°17'0 0.0
2016-Aug-18 21:31N 33°44' W 118°17'0 0.0
2016-Aug-18 20:31N 33°44' W 118°17'0 0.0
2016-Aug-18 19:33N 33°44' W 118°17'0 0.0
2016-Aug-18 16:20N 33°44' W 118°17'3 3.5
2016-Aug-18 15:31N 33°44' W 118°13'1 1.2
2016-Aug-18 14:33N 33°45' W 118°12'3 3.3
2016-Aug-18 13:30N 33°43' W 118°16'2 1.8
2016-Aug-18 12:32N 33°43' W 118°14'1 0.8
2016-Aug-18 11:33N 33°43' W 118°15'3 3.0
2016-Aug-18 10:33N 33°46' W 118°16'2 1.8
2016-Aug-18 09:33N 33°44' W 118°17'0 0.0
2016-Aug-18 08:33N 33°44' W 118°17'0 0.0
2016-Aug-18 07:22N 33°44' W 118°17'0 0.0
2016-Aug-18 06:33N 33°44' W 118°17'0 0.0
2016-Aug-18 05:32N 33°44' W 118°17'0 0.0
2016-Aug-18 04:30N 33°44' W 118°17'  

Dump ship's entire track history